Check out our new PWSWeather beta!
PWSweather.com
Personal Weather Stations
Station Observations
GRD01
Warsaw, LesznoPL 05-084

WarsawLesznoPL 05-084

Lat: 52.257404, Lon: 20.564847

Elevation: 298

Station Type: WH3080

http://pogoda.kampinos.waw.pl

High Low Average
Temperature 76.5°F24.7°C 52.3°F11.3°C 65.3°F18.5°C
Dew Point 55.8°F13.2°C 43.9°F6.6°C 50.1°F10.1°C
Winds 18.3 mph 29.5 kmh Calm Calm 5.0 mph NW8.0 kmh NW
Wind Gusts 27.3 mph43.9 kmh 0.7 mph1.1 kmh 9.0 mph14.5 kmh
Humidity 85% 32% 61%
Pressure 30.39 in1029.1 mb 30.33 in1027.1 mb -
Precipitation 0.00 in0.0 mm - -
Hour Temp Dew Point Humidity Winds Wind Gusts Pressure Precip Precip Rate Daily Precip Total
12:00 AM 55.6°F13.1°C 46.7°F8.2°C 72% 1.6 mph N2.6 kmh N 2.2 mph3.5 kmh 30.37 in1028.4 mb 0.00 in0.0 mm 0.00 in0.0 mm 0.00 in0.0 mm
12:15 AM 55.0°F12.8°C 46.2°F7.9°C 72% 0.7 mph N1.1 kmh N 1.6 mph2.6 kmh 30.37 in1028.4 mb 0.00 in0.0 mm 0.00 in0.0 mm 0.00 in0.0 mm
12:30 AM 54.7°F12.6°C 46.2°F7.9°C 73% 1.6 mph N2.6 kmh N 2.2 mph3.5 kmh 30.37 in1028.4 mb 0.00 in0.0 mm 0.00 in0.0 mm 0.00 in0.0 mm
12:45 AM 54.3°F12.4°C 47.3°F8.5°C 77% 1.6 mph N2.6 kmh N 2.2 mph3.5 kmh 30.37 in1028.4 mb 0.00 in0.0 mm 0.00 in0.0 mm 0.00 in0.0 mm
01:00 AM 54.1°F12.3°C 47.1°F8.4°C 77% 1.6 mph N2.6 kmh N 2.2 mph3.5 kmh 30.37 in1028.4 mb 0.00 in0.0 mm 0.00 in0.0 mm 0.00 in0.0 mm
01:15 AM 53.4°F11.9°C 46.7°F8.2°C 78% 0.7 mph N1.1 kmh N 3.8 mph6.1 kmh 30.37 in1028.4 mb 0.00 in0.0 mm 0.00 in0.0 mm 0.00 in0.0 mm
01:30 AM 53.2°F11.8°C 46.9°F8.3°C 79% 0.7 mph N1.1 kmh N 1.6 mph2.6 kmh 30.37 in1028.4 mb 0.00 in0.0 mm 0.00 in0.0 mm 0.00 in0.0 mm
01:45 AM 53.1°F11.7°C 47.1°F8.4°C 80% Calm Calm 2.2 mph3.5 kmh 30.37 in1028.4 mb 0.00 in0.0 mm 0.00 in0.0 mm 0.00 in0.0 mm
02:00 AM 52.9°F11.6°C 46.9°F8.3°C 80% Calm Calm 0.7 mph1.1 kmh 30.36 in1028.1 mb 0.00 in0.0 mm 0.00 in0.0 mm 0.00 in0.0 mm
02:15 AM 52.5°F11.4°C 46.9°F8.3°C 81% Calm Calm 1.6 mph2.6 kmh 30.36 in1028.1 mb 0.00 in0.0 mm 0.00 in0.0 mm 0.00 in0.0 mm
02:30 AM 52.3°F11.3°C 46.7°F8.2°C 81% Calm Calm 0.7 mph1.1 kmh 30.37 in1028.4 mb 0.00 in0.0 mm 0.00 in0.0 mm 0.00 in0.0 mm
02:45 AM 52.3°F11.3°C 47.0°F8.3°C 82% 1.6 mph N2.6 kmh N 3.1 mph5.0 kmh 30.37 in1028.4 mb 0.00 in0.0 mm 0.00 in0.0 mm 0.00 in0.0 mm
03:00 AM 52.7°F11.5°C 47.7°F8.7°C 83% Calm Calm 3.1 mph5.0 kmh 30.37 in1028.4 mb 0.00 in0.0 mm 0.00 in0.0 mm 0.00 in0.0 mm
03:15 AM 53.2°F11.8°C 48.5°F9.2°C 84% 1.6 mph NW2.6 kmh NW 2.2 mph3.5 kmh 30.38 in1028.8 mb 0.00 in0.0 mm 0.00 in0.0 mm 0.00 in0.0 mm
03:30 AM 53.8°F12.1°C 49.1°F9.5°C 84% 0.7 mph NW1.1 kmh NW 3.1 mph5.0 kmh 30.38 in1028.8 mb 0.00 in0.0 mm 0.00 in0.0 mm 0.00 in0.0 mm
03:45 AM 54.0°F12.2°C 49.2°F9.6°C 84% 1.6 mph NW2.6 kmh NW 2.2 mph3.5 kmh 30.38 in1028.8 mb 0.00 in0.0 mm 0.00 in0.0 mm 0.00 in0.0 mm
04:00 AM 54.0°F12.2°C 49.2°F9.6°C 84% 2.2 mph NW3.5 kmh NW 3.8 mph6.1 kmh 30.38 in1028.8 mb 0.00 in0.0 mm 0.00 in0.0 mm 0.00 in0.0 mm
04:15 AM 54.1°F12.3°C 49.7°F9.8°C 85% 4.5 mph N7.2 kmh N 5.4 mph8.7 kmh 30.39 in1029.1 mb 0.00 in0.0 mm 0.00 in0.0 mm 0.00 in0.0 mm
04:30 AM 54.5°F12.5°C 49.1°F9.5°C 82% 1.6 mph N2.6 kmh N 3.1 mph5.0 kmh 30.38 in1028.8 mb 0.00 in0.0 mm 0.00 in0.0 mm 0.00 in0.0 mm
04:45 AM 54.7°F12.6°C 49.6°F9.8°C 83% Calm Calm 3.1 mph5.0 kmh 30.38 in1028.8 mb 0.00 in0.0 mm 0.00 in0.0 mm 0.00 in0.0 mm
05:00 AM 55.2°F12.9°C 50.5°F10.3°C 84% 1.6 mph NW2.6 kmh NW 3.1 mph5.0 kmh 30.38 in1028.8 mb 0.00 in0.0 mm 0.00 in0.0 mm 0.00 in0.0 mm
05:15 AM 55.4°F13.0°C 51.0°F10.6°C 85% 0.7 mph NW1.1 kmh NW 3.8 mph6.1 kmh 30.39 in1029.1 mb 0.00 in0.0 mm 0.00 in0.0 mm 0.00 in0.0 mm
05:30 AM 55.6°F13.1°C 51.1°F10.6°C 85% Calm Calm 3.1 mph5.0 kmh 30.39 in1029.1 mb 0.00 in0.0 mm 0.00 in0.0 mm 0.00 in0.0 mm
05:45 AM 56.1°F13.4°C 51.7°F10.9°C 85% 0.7 mph NW1.1 kmh NW 2.2 mph3.5 kmh 30.39 in1029.1 mb 0.00 in0.0 mm 0.00 in0.0 mm 0.00 in0.0 mm
06:00 AM 56.8°F13.8°C 52.4°F11.3°C 85% 1.6 mph NW2.6 kmh NW 3.8 mph6.1 kmh 30.39 in1029.1 mb 0.00 in0.0 mm 0.00 in0.0 mm 0.00 in0.0 mm
06:15 AM 57.7°F14.3°C 53.3°F11.8°C 85% 1.6 mph WSW2.6 kmh WSW 4.5 mph7.2 kmh 30.39 in1029.1 mb 0.00 in0.0 mm 0.00 in0.0 mm 0.00 in0.0 mm
06:30 AM 59.0°F15.0°C 54.2°F12.3°C 84% 0.7 mph WSW1.1 kmh WSW 3.8 mph6.1 kmh 30.39 in1029.1 mb 0.00 in0.0 mm 0.00 in0.0 mm 0.00 in0.0 mm
06:45 AM 60.3°F15.7°C 54.7°F12.6°C 82% 3.8 mph WSW6.1 kmh WSW 4.5 mph7.2 kmh 30.39 in1029.1 mb 0.00 in0.0 mm 0.00 in0.0 mm 0.00 in0.0 mm
07:00 AM 60.8°F16.0°C 54.9°F12.7°C 81% 3.1 mph WSW5.0 kmh WSW 6.0 mph9.7 kmh 30.38 in1028.8 mb 0.00 in0.0 mm 0.00 in0.0 mm 0.00 in0.0 mm
07:15 AM 62.8°F17.1°C 55.8°F13.2°C 78% 1.6 mph SW2.6 kmh SW 6.0 mph9.7 kmh 30.39 in1029.1 mb 0.00 in0.0 mm 0.00 in0.0 mm 0.00 in0.0 mm
07:30 AM 64.0°F17.8°C 54.8°F12.7°C 72% 4.5 mph SW7.2 kmh SW 6.9 mph11.1 kmh 30.39 in1029.1 mb 0.00 in0.0 mm 0.00 in0.0 mm 0.00 in0.0 mm
07:45 AM 65.1°F18.4°C 55.1°F12.8°C 70% 4.5 mph SW7.2 kmh SW 6.0 mph9.7 kmh 30.39 in1029.1 mb 0.00 in0.0 mm 0.00 in0.0 mm 0.00 in0.0 mm
08:00 AM 66.4°F19.1°C 54.7°F12.6°C 66% 6.0 mph WSW9.7 kmh WSW 8.3 mph13.4 kmh 30.38 in1028.8 mb 0.00 in0.0 mm 0.00 in0.0 mm 0.00 in0.0 mm
08:15 AM 67.3°F19.6°C 54.3°F12.4°C 63% 2.2 mph SW3.5 kmh SW 6.9 mph11.1 kmh 30.38 in1028.8 mb 0.00 in0.0 mm 0.00 in0.0 mm 0.00 in0.0 mm
08:30 AM 68.4°F20.2°C 53.9°F12.2°C 60% 6.9 mph WSW11.1 kmh WSW 9.2 mph14.8 kmh 30.38 in1028.8 mb 0.00 in0.0 mm 0.00 in0.0 mm 0.00 in0.0 mm
08:45 AM 69.6°F20.9°C 54.2°F12.3°C 58% 3.8 mph W6.1 kmh W 10.7 mph17.2 kmh 30.38 in1028.8 mb 0.00 in0.0 mm 0.00 in0.0 mm 0.00 in0.0 mm
09:00 AM 70.3°F21.3°C 53.9°F12.2°C 56% 4.5 mph NW7.2 kmh NW 12.1 mph19.5 kmh 30.38 in1028.8 mb 0.00 in0.0 mm 0.00 in0.0 mm 0.00 in0.0 mm
09:15 AM 71.4°F21.9°C 52.9°F11.6°C 52% 4.5 mph NW7.2 kmh NW 11.4 mph18.3 kmh 30.37 in1028.4 mb 0.00 in0.0 mm 0.00 in0.0 mm 0.00 in0.0 mm
09:30 AM 71.6°F22.0°C 52.5°F11.4°C 51% 8.3 mph NW13.4 kmh NW 12.1 mph19.5 kmh 30.37 in1028.4 mb 0.00 in0.0 mm 0.00 in0.0 mm 0.00 in0.0 mm
09:45 AM 72.1°F22.3°C 52.5°F11.4°C 50% 11.4 mph WNW18.3 kmh WNW 13.6 mph21.9 kmh 30.37 in1028.4 mb 0.00 in0.0 mm 0.00 in0.0 mm 0.00 in0.0 mm
10:00 AM 72.3°F22.4°C 52.6°F11.4°C 50% 8.3 mph NW13.4 kmh NW 14.5 mph23.3 kmh 30.37 in1028.4 mb 0.00 in0.0 mm 0.00 in0.0 mm 0.00 in0.0 mm
10:15 AM 73.4°F23.0°C 50.8°F10.4°C 45% 9.8 mph W15.8 kmh W 13.6 mph21.9 kmh 30.37 in1028.4 mb 0.00 in0.0 mm 0.00 in0.0 mm 0.00 in0.0 mm
10:30 AM 73.4°F23.0°C 50.2°F10.1°C 44% 14.5 mph NW23.3 kmh NW 19.0 mph30.6 kmh 30.37 in1028.4 mb 0.00 in0.0 mm 0.00 in0.0 mm 0.00 in0.0 mm
10:45 AM 73.0°F22.8°C 49.8°F9.9°C 44% 8.3 mph NW13.4 kmh NW 15.2 mph24.5 kmh 30.37 in1028.4 mb 0.00 in0.0 mm 0.00 in0.0 mm 0.00 in0.0 mm
11:00 AM 73.4°F23.0°C 48.3°F9.1°C 41% 13.0 mph NW20.9 kmh NW 19.0 mph30.6 kmh 30.36 in1028.1 mb 0.00 in0.0 mm 0.00 in0.0 mm 0.00 in0.0 mm
11:15 AM 73.0°F22.8°C 49.2°F9.6°C 43% 11.4 mph NNW18.3 kmh NNW 21.3 mph34.3 kmh 30.37 in1028.4 mb 0.00 in0.0 mm 0.00 in0.0 mm 0.00 in0.0 mm
11:30 AM 73.6°F23.1°C 49.7°F9.8°C 43% 6.9 mph N11.1 kmh N 19.7 mph31.7 kmh 30.36 in1028.1 mb 0.00 in0.0 mm 0.00 in0.0 mm 0.00 in0.0 mm
11:45 AM 73.2°F22.9°C 49.4°F9.7°C 43% 9.2 mph N14.8 kmh N 17.4 mph28.0 kmh 30.36 in1028.1 mb 0.00 in0.0 mm 0.00 in0.0 mm 0.00 in0.0 mm
12:00 PM 73.8°F23.2°C 49.9°F9.9°C 43% 13.6 mph NW21.9 kmh NW 19.0 mph30.6 kmh 30.36 in1028.1 mb 0.00 in0.0 mm 0.00 in0.0 mm 0.00 in0.0 mm
12:15 PM 73.6°F23.1°C 49.1°F9.5°C 42% 15.2 mph NNW24.5 kmh NNW 18.3 mph29.5 kmh 30.35 in1027.8 mb 0.00 in0.0 mm 0.00 in0.0 mm 0.00 in0.0 mm
12:30 PM 72.7°F22.6°C 49.5°F9.7°C 44% 7.6 mph NNW12.2 kmh NNW 15.2 mph24.5 kmh 30.35 in1027.8 mb 0.00 in0.0 mm 0.00 in0.0 mm 0.00 in0.0 mm
12:45 PM 74.3°F23.5°C 49.1°F9.5°C 41% 13.6 mph NNW21.9 kmh NNW 18.3 mph29.5 kmh 30.35 in1027.8 mb 0.00 in0.0 mm 0.00 in0.0 mm 0.00 in0.0 mm
01:00 PM 74.5°F23.6°C 49.2°F9.6°C 41% 16.8 mph NW27.0 kmh NW 20.6 mph33.2 kmh 30.35 in1027.8 mb 0.00 in0.0 mm 0.00 in0.0 mm 0.00 in0.0 mm
01:15 PM 75.7°F24.3°C 48.3°F9.1°C 38% 18.3 mph NW29.5 kmh NW 25.9 mph41.7 kmh 30.35 in1027.8 mb 0.00 in0.0 mm 0.00 in0.0 mm 0.00 in0.0 mm
01:30 PM 75.7°F24.3°C 48.3°F9.1°C 38% 16.8 mph NNW27.0 kmh NNW 27.3 mph43.9 kmh 30.35 in1027.8 mb 0.00 in0.0 mm 0.00 in0.0 mm 0.00 in0.0 mm
01:45 PM 76.1°F24.5°C 47.2°F8.4°C 36% 13.6 mph NNW21.9 kmh NNW 24.4 mph39.3 kmh 30.35 in1027.8 mb 0.00 in0.0 mm 0.00 in0.0 mm 0.00 in0.0 mm
02:00 PM 76.1°F24.5°C 46.5°F8.1°C 35% 13.6 mph N21.9 kmh N 22.8 mph36.7 kmh 30.35 in1027.8 mb 0.00 in0.0 mm 0.00 in0.0 mm 0.00 in0.0 mm
02:15 PM 76.5°F24.7°C 46.8°F8.2°C 35% 15.2 mph N24.5 kmh N 19.0 mph30.6 kmh 30.35 in1027.8 mb 0.00 in0.0 mm 0.00 in0.0 mm 0.00 in0.0 mm
02:30 PM 75.7°F24.3°C 46.1°F7.8°C 35% 15.2 mph N24.5 kmh N 20.6 mph33.2 kmh 30.34 in1027.4 mb 0.00 in0.0 mm 0.00 in0.0 mm 0.00 in0.0 mm
02:45 PM 75.9°F24.4°C 47.0°F8.3°C 36% 13.0 mph N20.9 kmh N 19.0 mph30.6 kmh 30.34 in1027.4 mb 0.00 in0.0 mm 0.00 in0.0 mm 0.00 in0.0 mm
03:00 PM 75.9°F24.4°C 46.3°F7.9°C 35% 13.6 mph N21.9 kmh N 17.4 mph28.0 kmh 30.34 in1027.4 mb 0.00 in0.0 mm 0.00 in0.0 mm 0.00 in0.0 mm
03:15 PM 76.1°F24.5°C 45.7°F7.6°C 34% 10.7 mph NNW17.2 kmh NNW 19.0 mph30.6 kmh 30.34 in1027.4 mb 0.00 in0.0 mm 0.00 in0.0 mm 0.00 in0.0 mm
03:30 PM 75.7°F24.3°C 44.6°F7.0°C 33% 13.6 mph NNW21.9 kmh NNW 17.4 mph28.0 kmh 30.34 in1027.4 mb 0.00 in0.0 mm 0.00 in0.0 mm 0.00 in0.0 mm
03:45 PM 75.7°F24.3°C 44.6°F7.0°C 33% 8.3 mph N13.4 kmh N 18.3 mph29.5 kmh 30.33 in1027.1 mb 0.00 in0.0 mm 0.00 in0.0 mm 0.00 in0.0 mm
04:00 PM 75.9°F24.4°C 43.9°F6.6°C 32% 9.8 mph N15.8 kmh N 17.4 mph28.0 kmh 30.34 in1027.4 mb 0.00 in0.0 mm 0.00 in0.0 mm 0.00 in0.0 mm
04:15 PM 74.8°F23.8°C 44.6°F7.0°C 34% 7.6 mph N12.2 kmh N 15.9 mph25.6 kmh 30.34 in1027.4 mb 0.00 in0.0 mm 0.00 in0.0 mm 0.00 in0.0 mm
04:30 PM 74.3°F23.5°C 44.1°F6.7°C 34% 10.7 mph N17.2 kmh N 13.6 mph21.9 kmh 30.34 in1027.4 mb 0.00 in0.0 mm 0.00 in0.0 mm 0.00 in0.0 mm
04:45 PM 73.9°F23.3°C 44.5°F6.9°C 35% 8.3 mph N13.4 kmh N 11.4 mph18.3 kmh 30.34 in1027.4 mb 0.00 in0.0 mm 0.00 in0.0 mm 0.00 in0.0 mm
05:00 PM 74.3°F23.5°C 44.9°F7.2°C 35% 8.3 mph NNW13.4 kmh NNW 13.0 mph20.9 kmh 30.34 in1027.4 mb 0.00 in0.0 mm 0.00 in0.0 mm 0.00 in0.0 mm
05:15 PM 73.9°F23.3°C 45.3°F7.4°C 36% 4.5 mph NNW7.2 kmh NNW 10.7 mph17.2 kmh 30.34 in1027.4 mb 0.00 in0.0 mm 0.00 in0.0 mm 0.00 in0.0 mm
05:30 PM 73.2°F22.9°C 49.4°F9.7°C 43% 6.0 mph WSW9.7 kmh WSW 13.0 mph20.9 kmh 30.35 in1027.8 mb 0.00 in0.0 mm 0.00 in0.0 mm 0.00 in0.0 mm
05:45 PM 71.4°F21.9°C 52.9°F11.6°C 52% 11.4 mph WSW18.3 kmh WSW 13.6 mph21.9 kmh 30.35 in1027.8 mb 0.00 in0.0 mm 0.00 in0.0 mm 0.00 in0.0 mm
06:00 PM 70.7°F21.5°C 52.7°F11.5°C 53% 5.4 mph WNW8.7 kmh WNW 13.0 mph20.9 kmh 30.35 in1027.8 mb 0.00 in0.0 mm 0.00 in0.0 mm 0.00 in0.0 mm
06:15 PM 70.0°F21.1°C 52.6°F11.4°C 54% 4.5 mph WNW7.2 kmh WNW 7.6 mph12.2 kmh 30.35 in1027.8 mb 0.00 in0.0 mm 0.00 in0.0 mm 0.00 in0.0 mm
06:30 PM 69.4°F20.8°C 53.1°F11.7°C 56% 3.8 mph WNW6.1 kmh WNW 7.6 mph12.2 kmh 30.36 in1028.1 mb 0.00 in0.0 mm 0.00 in0.0 mm 0.00 in0.0 mm
06:45 PM 68.7°F20.4°C 51.9°F11.1°C 55% 6.9 mph NW11.1 kmh NW 15.2 mph24.5 kmh 30.37 in1028.4 mb 0.00 in0.0 mm 0.00 in0.0 mm 0.00 in0.0 mm
07:00 PM 68.4°F20.2°C 52.0°F11.1°C 56% 3.8 mph NW6.1 kmh NW 11.4 mph18.3 kmh 30.36 in1028.1 mb 0.00 in0.0 mm 0.00 in0.0 mm 0.00 in0.0 mm
07:15 PM 67.3°F19.6°C 52.5°F11.4°C 59% 3.8 mph NW6.1 kmh NW 9.2 mph14.8 kmh 30.36 in1028.1 mb 0.00 in0.0 mm 0.00 in0.0 mm 0.00 in0.0 mm
07:30 PM 66.4°F19.1°C 52.1°F11.2°C 60% 3.8 mph NW6.1 kmh NW 9.2 mph14.8 kmh 30.37 in1028.4 mb 0.00 in0.0 mm 0.00 in0.0 mm 0.00 in0.0 mm
07:45 PM 65.7°F18.7°C 51.8°F11.0°C 61% 5.4 mph NNW8.7 kmh NNW 6.0 mph9.7 kmh 30.37 in1028.4 mb 0.00 in0.0 mm 0.00 in0.0 mm 0.00 in0.0 mm
08:00 PM 65.1°F18.4°C 51.8°F11.0°C 62% 3.1 mph NW5.0 kmh NW 6.0 mph9.7 kmh 30.37 in1028.4 mb 0.00 in0.0 mm 0.00 in0.0 mm 0.00 in0.0 mm
08:15 PM 64.6°F18.1°C 51.7°F10.9°C 63% 3.8 mph NW6.1 kmh NW 5.4 mph8.7 kmh 30.37 in1028.4 mb 0.00 in0.0 mm 0.00 in0.0 mm 0.00 in0.0 mm
08:30 PM 64.0°F17.8°C 51.6°F10.9°C 64% 2.2 mph NNW3.5 kmh NNW 3.8 mph6.1 kmh 30.37 in1028.4 mb 0.00 in0.0 mm 0.00 in0.0 mm 0.00 in0.0 mm
08:45 PM 63.5°F17.5°C 51.5°F10.8°C 65% 2.2 mph NW3.5 kmh NW 3.8 mph6.1 kmh 30.38 in1028.8 mb 0.00 in0.0 mm 0.00 in0.0 mm 0.00 in0.0 mm
09:00 PM 63.1°F17.3°C 53.2°F11.8°C 70% 0.7 mph NW1.1 kmh NW 3.8 mph6.1 kmh 30.38 in1028.8 mb 0.00 in0.0 mm 0.00 in0.0 mm 0.00 in0.0 mm
09:15 PM 63.0°F17.2°C 53.0°F11.7°C 70% 3.1 mph NW5.0 kmh NW 4.5 mph7.2 kmh 30.37 in1028.4 mb 0.00 in0.0 mm 0.00 in0.0 mm 0.00 in0.0 mm
09:30 PM 63.0°F17.2°C 53.0°F11.7°C 70% 2.2 mph W3.5 kmh W 3.8 mph6.1 kmh 30.38 in1028.8 mb 0.00 in0.0 mm 0.00 in0.0 mm 0.00 in0.0 mm
09:45 PM 63.0°F17.2°C 53.0°F11.7°C 70% 2.2 mph N3.5 kmh N 5.4 mph8.7 kmh 30.38 in1028.8 mb 0.00 in0.0 mm 0.00 in0.0 mm 0.00 in0.0 mm
10:00 PM 62.8°F17.1°C 53.2°F11.8°C 71% 1.6 mph N2.6 kmh N 2.2 mph3.5 kmh 30.38 in1028.8 mb 0.00 in0.0 mm 0.00 in0.0 mm 0.00 in0.0 mm
10:15 PM 62.4°F16.9°C 52.9°F11.6°C 71% 0.7 mph W1.1 kmh W 3.8 mph6.1 kmh 30.38 in1028.8 mb 0.00 in0.0 mm 0.00 in0.0 mm 0.00 in0.0 mm
10:30 PM 62.1°F16.7°C 52.5°F11.4°C 71% Calm Calm 2.2 mph3.5 kmh 30.38 in1028.8 mb 0.00 in0.0 mm 0.00 in0.0 mm 0.00 in0.0 mm
10:45 PM 61.3°F16.3°C 52.6°F11.4°C 73% Calm Calm 2.2 mph3.5 kmh 30.38 in1028.8 mb 0.00 in0.0 mm 0.00 in0.0 mm 0.00 in0.0 mm
11:00 PM 61.0°F16.1°C 52.6°F11.4°C 74% Calm Calm 2.2 mph3.5 kmh 30.39 in1029.1 mb 0.00 in0.0 mm 0.00 in0.0 mm 0.00 in0.0 mm
11:15 PM 60.3°F15.7°C 51.9°F11.1°C 74% Calm Calm 2.2 mph3.5 kmh 30.39 in1029.1 mb 0.00 in0.0 mm 0.00 in0.0 mm 0.00 in0.0 mm
11:30 PM 59.7°F15.4°C 52.1°F11.2°C 76% 0.7 mph W1.1 kmh W 2.2 mph3.5 kmh 30.39 in1029.1 mb 0.00 in0.0 mm 0.00 in0.0 mm 0.00 in0.0 mm
11:45 PM 59.4°F15.2°C 51.8°F11.0°C 76% 1.6 mph W2.6 kmh W 3.1 mph5.0 kmh 30.39 in1029.1 mb 0.00 in0.0 mm 0.00 in0.0 mm 0.00 in0.0 mm